Time;durP1;ratioP1;P1;durP2;ratioP2;P2;SDS_P1;SDS_P2;PMS_P1;PMS_P2;Temp;Humidity;BMP_temperature;BMP_pressure;BME280_temperature;BME280_humidity;BME280_pressure;Samples;Min_cycle;Max_cycle;Signal;HPM_P1;HPM_P2
2022/08/05 00:00:47;;;;;;;3.33;2.20;;;27.50;56.30;;;;;;5053888;28;20056;-38
2022/08/05 00:03:13;;;;;;;4.43;2.58;;;27.50;56.30;;;;;;5053897;28;20029;-38
2022/08/05 00:05:38;;;;;;;3.47;2.38;;;27.40;56.10;;;;;;5053950;28;20075;-41
2022/08/05 00:08:04;;;;;;;3.20;2.55;;;27.40;55.80;;;;;;5054198;28;20476;-38
2022/08/05 00:10:30;;;;;;;3.58;2.13;;;27.40;55.50;;;;;;5054009;28;20428;-38
2022/08/05 00:12:55;;;;;;;3.13;2.33;;;27.40;55.30;;;;;;5048052;28;20025;-38
2022/08/05 00:15:21;;;;;;;3.10;2.47;;;27.40;55.30;;;;;;5054413;28;20102;-38
2022/08/05 00:17:46;;;;;;;3.13;2.55;;;27.40;55.00;;;;;;5053343;28;20033;-38
2022/08/05 00:20:12;;;;;;;3.13;2.45;;;27.40;55.00;;;;;;5050322;28;20033;-38
2022/08/05 00:22:38;;;;;;;4.93;2.80;;;27.40;55.10;;;;;;5053956;28;20475;-40
2022/08/05 00:25:04;;;;;;;2.72;2.30;;;27.40;54.90;;;;;;5052626;28;20032;-38
2022/08/05 00:27:29;;;;;;;2.65;2.30;;;27.40;55.10;;;;;;5052780;28;20029;-38
2022/08/05 00:29:55;;;;;;;3.95;2.33;;;27.40;55.10;;;;;;5048614;28;20044;-39
2022/08/05 00:32:21;;;;;;;2.83;2.20;;;27.40;55.20;;;;;;5053939;28;20486;-38
2022/08/05 00:34:46;;;;;;;2.88;2.50;;;27.40;55.00;;;;;;5052764;28;20472;-40
2022/08/05 00:37:12;;;;;;;4.78;2.28;;;27.40;55.00;;;;;;5053965;28;20025;-38
2022/08/05 00:39:41;;;;;;;3.25;2.50;;;27.40;55.00;;;;;;5054182;28;20374;-38
2022/08/05 00:42:07;;;;;;;3.28;2.30;;;27.40;55.00;;;;;;5053579;28;20033;-38
2022/08/05 00:44:32;;;;;;;2.88;2.50;;;27.40;55.00;;;;;;5053493;28;20493;-38
2022/08/05 00:46:58;;;;;;;3.33;2.25;;;27.40;55.00;;;;;;5047760;28;20509;-38
2022/08/05 00:49:24;;;;;;;2.92;2.35;;;27.40;55.00;;;;;;5053535;28;20032;-38
2022/08/05 00:51:49;;;;;;;2.83;2.25;;;27.40;55.00;;;;;;5052776;28;20033;-38
2022/08/05 00:54:15;;;;;;;3.67;2.25;;;27.40;55.10;;;;;;5053505;28;20025;-38
2022/08/05 00:56:42;;;;;;;3.08;2.35;;;27.40;55.10;;;;;;5051030;28;20470;-41
2022/08/05 00:59:08;;;;;;;4.82;2.17;;;27.40;55.10;;;;;;5052719;28;20032;-38
2022/08/05 01:01:35;;;;;;;3.33;2.20;;;27.40;55.00;;;;;;5043771;28;20432;-39
2022/08/05 01:04:02;;;;;;;3.63;2.30;;;27.40;55.00;;;;;;5047369;28;20033;-37
2022/08/05 01:06:29;;;;;;;2.78;2.35;;;27.40;54.80;;;;;;5052433;28;20082;-37
2022/08/05 01:08:55;;;;;;;4.07;2.25;;;27.30;54.20;;;;;;5051287;28;20508;-38
2022/08/05 01:11:31;;;;;;;3.00;2.22;;;27.40;53.70;;;;;;5052523;28;20044;-37
2022/08/05 01:14:06;;;;;;;3.42;2.10;;;27.40;52.90;;;;;;5051487;28;20049;-38
2022/08/05 01:16:55;;;;;;;4.60;2.38;;;27.40;52.90;;;;;;5054527;28;20521;-38
2022/08/05 01:19:22;;;;;;;3.45;2.20;;;27.40;52.80;;;;;;5027915;28;20029;-38
2022/08/05 01:21:50;;;;;;;2.85;2.40;;;27.30;52.40;;;;;;5051751;28;20031;-37
2022/08/05 01:24:24;;;;;;;4.47;2.45;;;27.30;52.60;;;;;;5053216;28;20095;-38
2022/08/05 01:26:50;;;;;;;1.98;1.77;;;27.30;51.60;;;;;;5051793;28;20029;-38
2022/08/05 01:29:23;;;;;;;4.07;2.05;;;27.30;51.70;;;;;;5053048;28;20028;-38
2022/08/05 01:31:53;;;;;;;3.28;2.38;;;27.30;51.20;;;;;;5051285;28;20056;-38
2022/08/05 01:34:29;;;;;;;3.83;2.30;;;27.30;51.90;;;;;;5048505;28;20049;-38
2022/08/05 01:37:16;;;;;;;2.75;1.80;;;27.30;51.40;;;;;;5050957;28;20061;-38
2022/08/05 01:39:45;;;;;;;4.60;1.73;;;27.30;51.40;;;;;;5052448;28;20454;-42
2022/08/05 01:42:13;;;;;;;2.25;1.75;;;27.30;51.40;;;;;;5052262;28;20049;-37
2022/08/05 01:44:40;;;;;;;3.53;1.50;;;27.30;51.50;;;;;;5052640;28;20029;-38
2022/08/05 01:47:07;;;;;;;3.25;1.73;;;27.30;51.30;;;;;;5051722;28;20048;-38
2022/08/05 01:49:35;;;;;;;3.25;2.30;;;27.30;51.30;;;;;;5052492;28;20033;-46
2022/08/05 01:52:02;;;;;;;2.22;1.67;;;27.30;51.30;;;;;;5047162;28;20040;-38
2022/08/05 01:54:38;;;;;;;2.22;1.40;;;27.30;51.80;;;;;;5051940;28;20020;-38
2022/08/05 01:57:05;;;;;;;5.32;1.77;;;27.20;51.30;;;;;;5051245;28;20032;-38
2022/08/05 01:59:32;;;;;;;4.43;2.45;;;27.30;51.40;;;;;;5051699;28;20470;-38
2022/08/05 02:02:00;;;;;;;4.82;2.05;;;27.30;51.70;;;;;;5050339;28;20037;-41
2022/08/05 02:04:28;;;;;;;3.42;1.70;;;27.30;51.50;;;;;;5052141;28;20025;-38
2022/08/05 02:06:55;;;;;;;3.80;1.80;;;27.30;51.70;;;;;;5051337;28;20033;-39
2022/08/05 02:09:21;;;;;;;3.42;1.83;;;27.30;51.80;;;;;;5045872;28;20479;-39
2022/08/05 02:12:11;;;;;;;4.43;1.70;;;27.30;52.00;;;;;;5050502;28;20140;-43
2022/08/05 02:14:43;;;;;;;3.45;1.70;;;27.30;52.00;;;;;;5052121;28;20036;-39
2022/08/05 02:17:24;;;;;;;3.17;2.35;;;27.20;52.00;;;;;;5051789;28;20036;-39
2022/08/05 02:19:53;;;;;;;2.23;2.03;;;27.30;52.00;;;;;;5047093;28;20033;-41
2022/08/05 02:22:27;;;;;;;4.32;1.67;;;27.30;52.20;;;;;;5051478;28;20291;-38
2022/08/05 02:25:01;;;;;;;2.28;1.40;;;27.30;52.00;;;;;;5046893;28;20056;-38
2022/08/05 02:27:29;;;;;;;4.57;1.70;;;27.30;52.20;;;;;;5051082;28;20385;-38
2022/08/05 02:29:56;;;;;;;3.10;1.73;;;27.30;52.30;;;;;;5050504;28;20029;-38
2022/08/05 02:32:24;;;;;;;3.45;1.63;;;27.30;52.30;;;;;;5052105;28;20398;-39
2022/08/05 02:34:51;;;;;;;2.30;1.63;;;27.30;52.30;;;;;;5050671;28;20083;-39
2022/08/05 02:37:18;;;;;;;6.93;2.22;;;27.30;52.40;;;;;;5051554;28;20060;-38
2022/08/05 02:39:46;;;;;;;4.03;1.80;;;27.20;52.30;;;;;;5051332;28;20093;-44
2022/08/05 02:42:13;;;;;;;5.47;1.75;;;27.30;52.30;;;;;;5047575;28;20136;-39
2022/08/05 02:44:39;;;;;;;2.83;1.50;;;27.30;52.40;;;;;;5050852;28;20082;-39
2022/08/05 02:47:08;;;;;;;3.25;1.80;;;27.30;52.50;;;;;;5050856;28;20245;-38
2022/08/05 02:49:36;;;;;;;15.30;1.80;;;27.30;52.50;;;;;;5048437;28;20028;-38
2022/08/05 02:52:02;;;;;;;1.63;1.48;;;27.30;52.50;;;;;;5050826;28;20094;-39
2022/08/05 02:54:29;;;;;;;3.72;1.83;;;27.30;52.50;;;;;;5050917;28;20573;-38
2022/08/05 02:56:55;;;;;;;5.38;1.83;;;27.30;53.20;;;;;;5050602;28;20028;-39
2022/08/05 02:59:23;;;;;;;5.63;2.13;;;27.30;52.60;;;;;;5046398;28;20382;-39
2022/08/05 03:01:50;;;;;;;6.18;2.50;;;27.20;52.50;;;;;;5049621;28;20029;-45
2022/08/05 03:04:18;;;;;;;5.55;2.00;;;27.30;52.70;;;;;;5033909;28;20079;-38
2022/08/05 03:06:44;;;;;;;5.00;1.88;;;27.20;52.60;;;;;;5051146;28;20103;-38
2022/08/05 03:09:13;;;;;;;3.78;1.98;;;27.30;52.70;;;;;;5050090;28;20280;-38
2022/08/05 03:11:42;;;;;;;2.38;1.58;;;27.20;52.70;;;;;;5050674;28;20049;-38
2022/08/05 03:14:07;;;;;;;7.28;1.80;;;27.20;52.70;;;;;;5050155;28;20033;-42
2022/08/05 03:16:33;;;;;;;4.90;1.60;;;27.20;52.70;;;;;;5048641;28;20025;-39
2022/08/05 03:19:00;;;;;;;3.53;1.67;;;27.20;52.80;;;;;;5046500;28;20040;-38
2022/08/05 03:21:25;;;;;;;4.00;1.77;;;27.20;52.90;;;;;;5051062;28;20044;-38
2022/08/05 03:23:51;;;;;;;3.65;1.70;;;27.20;52.90;;;;;;5032107;28;20041;-39
2022/08/05 03:26:17;;;;;;;4.15;2.15;;;27.20;52.90;;;;;;5051026;28;20035;-38
2022/08/05 03:28:43;;;;;;;6.25;1.85;;;27.20;52.90;;;;;;5050972;28;20079;-38
2022/08/05 03:31:09;;;;;;;2.65;1.77;;;27.20;52.90;;;;;;5050234;28;20100;-38
2022/08/05 03:33:35;;;;;;;4.75;2.13;;;27.20;52.80;;;;;;5047693;28;20067;-43
2022/08/05 03:36:01;;;;;;;3.95;2.00;;;27.20;52.90;;;;;;5047762;28;20060;-38
2022/08/05 03:38:26;;;;;;;5.88;2.17;;;27.20;53.00;;;;;;5050786;28;20128;-38
2022/08/05 03:40:52;;;;;;;5.18;1.92;;;27.20;53.00;;;;;;5049842;28;20029;-38
2022/08/05 03:43:19;;;;;;;4.18;1.92;;;27.20;53.00;;;;;;5050807;28;20531;-38
2022/08/05 03:45:45;;;;;;;6.85;2.15;;;27.20;53.00;;;;;;5050903;28;20059;-38
2022/08/05 03:48:11;;;;;;;6.65;2.20;;;27.20;53.00;;;;;;5050005;28;20029;-38
2022/08/05 03:50:48;;;;;;;7.47;2.00;;;27.20;53.00;;;;;;5050898;28;20021;-38
2022/08/05 03:53:40;;;;;;;5.38;2.20;;;27.20;53.00;;;;;;5045832;28;20139;-42
2022/08/05 03:56:14;;;;;;;2.67;1.63;;;27.20;53.10;;;;;;5027492;28;20032;-38
2022/08/05 03:58:44;;;;;;;3.65;2.00;;;27.20;53.10;;;;;;5049995;28;20032;-38
2022/08/05 04:01:11;;;;;;;5.07;1.90;;;27.20;53.10;;;;;;5050078;28;20029;-38
2022/08/05 04:03:38;;;;;;;6.97;2.25;;;27.20;53.20;;;;;;5046625;28;20029;-39
2022/08/05 04:06:05;;;;;;;4.15;1.80;;;27.20;53.20;;;;;;5049677;28;20029;-39
2022/08/05 04:08:33;;;;;;;6.38;2.08;;;27.20;53.20;;;;;;5050682;28;20036;-38
2022/08/05 04:11:00;;;;;;;3.97;2.20;;;27.10;53.30;;;;;;5042836;28;20128;-38
2022/08/05 04:13:27;;;;;;;4.57;2.38;;;27.10;53.30;;;;;;5050354;28;20037;-40
2022/08/05 04:15:53;;;;;;;3.92;2.22;;;27.10;53.30;;;;;;5051799;28;20466;-43
2022/08/05 04:18:22;;;;;;;2.53;1.52;;;27.20;53.50;;;;;;5055239;28;20083;-38
2022/08/05 04:20:55;;;;;;;3.10;1.83;;;27.10;53.50;;;;;;5050483;28;20028;-38
2022/08/05 04:23:24;;;;;;;4.10;1.95;;;27.10;53.60;;;;;;5042553;28;20072;-38
2022/08/05 04:25:50;;;;;;;6.38;2.10;;;27.10;54.30;;;;;;5046406;28;20021;-42
2022/08/05 04:28:16;;;;;;;6.18;1.90;;;27.10;53.70;;;;;;5049675;28;20039;-39
2022/08/05 04:30:41;;;;;;;6.60;1.77;;;27.10;53.70;;;;;;5052387;28;20139;-38
2022/08/05 04:33:07;;;;;;;3.33;2.03;;;27.10;53.80;;;;;;5053089;28;20029;-39
2022/08/05 04:35:32;;;;;;;10.27;2.13;;;27.00;53.90;;;;;;5053852;28;20036;-38
2022/08/05 04:37:58;;;;;;;2.78;1.90;;;27.00;54.00;;;;;;5053212;28;20029;-39
2022/08/05 04:40:24;;;;;;;4.90;1.80;;;27.00;54.00;;;;;;5053895;28;20108;-39
2022/08/05 04:42:49;;;;;;;2.72;2.08;;;27.10;54.00;;;;;;5047947;28;20033;-38
2022/08/05 04:45:15;;;;;;;2.97;2.25;;;27.00;54.00;;;;;;5052762;28;20633;-39
2022/08/05 04:47:41;;;;;;;4.30;2.08;;;27.10;54.00;;;;;;5054094;28;20505;-38
2022/08/05 04:50:07;;;;;;;4.93;2.22;;;27.10;54.00;;;;;;5053222;28;20025;-39
2022/08/05 04:52:32;;;;;;;4.65;1.90;;;27.00;54.00;;;;;;5054107;28;20184;-38
2022/08/05 04:54:58;;;;;;;4.53;2.22;;;27.10;54.10;;;;;;5052665;28;20589;-38
2022/08/05 04:57:25;;;;;;;5.03;2.00;;;27.00;54.10;;;;;;5053561;28;20025;-38
2022/08/05 04:59:50;;;;;;;4.72;2.95;;;27.00;54.10;;;;;;5048112;28;20044;-38
2022/08/05 05:02:16;;;;;;;3.22;1.80;;;27.00;54.10;;;;;;5033781;28;20037;-38
2022/08/05 05:04:42;;;;;;;6.05;1.98;;;27.00;54.10;;;;;;5053203;28;20033;-38
2022/08/05 05:07:07;;;;;;;3.65;1.95;;;27.00;54.10;;;;;;5052628;28;20066;-38
2022/08/05 05:09:33;;;;;;;8.93;2.63;;;27.00;54.20;;;;;;5053434;28;20124;-38
2022/08/05 05:12:00;;;;;;;2.95;1.60;;;27.00;54.30;;;;;;5051738;28;20049;-38
2022/08/05 05:14:26;;;;;;;6.22;1.95;;;27.00;54.30;;;;;;5043218;28;20033;-38
2022/08/05 05:16:51;;;;;;;4.03;2.28;;;27.00;54.40;;;;;;5039289;28;20040;-38
2022/08/05 05:19:17;;;;;;;7.45;2.30;;;27.00;54.30;;;;;;5052380;28;20500;-38
2022/08/05 05:21:43;;;;;;;5.03;2.47;;;27.00;54.30;;;;;;5052873;28;20040;-38
2022/08/05 05:24:08;;;;;;;5.80;2.28;;;27.00;54.30;;;;;;5052323;28;20044;-38
2022/08/05 05:26:34;;;;;;;6.93;2.00;;;27.00;54.30;;;;;;5051664;28;20032;-39
2022/08/05 05:29:00;;;;;;;5.75;2.45;;;27.00;54.20;;;;;;5050063;28;20048;-38
2022/08/05 05:31:26;;;;;;;4.45;2.42;;;27.00;54.40;;;;;;5049165;28;20086;-38
2022/08/05 05:33:51;;;;;;;4.30;2.70;;;27.00;54.40;;;;;;5046866;28;20025;-38
2022/08/05 05:36:17;;;;;;;4.70;2.22;;;27.00;54.50;;;;;;5050729;28;20363;-38
2022/08/05 05:38:43;;;;;;;4.93;2.17;;;27.10;54.60;;;;;;5050555;28;20474;-40
2022/08/05 05:41:08;;;;;;;6.68;2.47;;;27.00;54.70;;;;;;5050441;28;20083;-38
2022/08/05 05:43:34;;;;;;;3.05;2.28;;;27.00;54.80;;;;;;5050424;28;20098;-39
2022/08/05 05:45:59;;;;;;;7.90;2.72;;;27.00;54.80;;;;;;5050005;28;20705;-38
2022/08/05 05:48:25;;;;;;;6.10;2.58;;;27.00;54.90;;;;;;5047918;28;20029;-39
2022/08/05 05:50:51;;;;;;;7.85;2.67;;;27.10;55.00;;;;;;5049710;28;20458;-39
2022/08/05 05:53:17;;;;;;;5.70;2.22;;;27.10;54.90;;;;;;5050565;28;20048;-38
2022/08/05 05:55:42;;;;;;;6.88;2.35;;;27.10;54.90;;;;;;5050534;28;20032;-41
2022/08/05 05:58:08;;;;;;;7.38;2.67;;;27.10;54.90;;;;;;5049856;28;20056;-37
2022/08/05 06:00:33;;;;;;;4.70;2.33;;;27.10;55.10;;;;;;5050810;28;20057;-37
2022/08/05 06:03:01;;;;;;;5.00;2.92;;;27.20;55.10;;;;;;5049740;28;20048;-38
2022/08/05 06:05:26;;;;;;;9.18;3.08;;;27.20;55.50;;;;;;5048646;28;20037;-38
2022/08/05 06:07:52;;;;;;;6.38;2.47;;;27.10;55.80;;;;;;5051329;28;20378;-38
2022/08/05 06:10:18;;;;;;;8.02;3.10;;;27.10;55.60;;;;;;5051083;28;20086;-39
2022/08/05 06:12:43;;;;;;;4.55;2.35;;;27.10;55.40;;;;;;5050578;28;20060;-38
2022/08/05 06:15:10;;;;;;;3.15;1.88;;;27.20;55.30;;;;;;5048449;28;20059;-38
2022/08/05 06:17:36;;;;;;;5.10;2.50;;;27.20;55.00;;;;;;5048871;28;20028;-38
2022/08/05 06:20:04;;;;;;;4.40;2.15;;;27.20;55.00;;;;;;5051061;28;20033;-38
2022/08/05 06:22:31;;;;;;;4.25;3.00;;;27.20;54.80;;;;;;5051125;28;20065;-38
2022/08/05 06:24:57;;;;;;;4.78;2.50;;;27.20;54.90;;;;;;5051003;28;20036;-42
2022/08/05 06:27:22;;;;;;;2.95;2.15;;;27.20;54.90;;;;;;5051190;28;20390;-38
2022/08/05 06:29:48;;;;;;;3.38;2.08;;;27.20;54.70;;;;;;5051136;28;20033;-38
2022/08/05 06:32:42;;;;;;;5.05;2.28;;;27.20;54.70;;;;;;5050388;28;20040;-38
2022/08/05 06:35:08;;;;;;;4.63;2.20;;;27.10;54.70;;;;;;5045362;28;20033;-38
2022/08/05 06:37:33;;;;;;;2.90;2.22;;;27.20;54.70;;;;;;5051311;28;20488;-39
2022/08/05 06:39:59;;;;;;;3.85;2.30;;;27.20;54.60;;;;;;5050887;28;20036;-38
2022/08/05 06:42:24;;;;;;;5.78;2.63;;;27.20;54.40;;;;;;5048711;28;20432;-38
2022/08/05 06:44:50;;;;;;;4.22;1.98;;;27.20;54.70;;;;;;5050608;28;20068;-38
2022/08/05 06:47:16;;;;;;;6.18;2.28;;;27.20;54.50;;;;;;5050455;28;20572;-38
2022/08/05 06:49:41;;;;;;;2.47;2.00;;;27.20;54.50;;;;;;5050999;28;20032;-38
2022/08/05 06:52:07;;;;;;;4.13;1.83;;;27.30;54.40;;;;;;5050361;28;20115;-38
2022/08/05 06:54:32;;;;;;;6.50;2.92;;;27.30;54.40;;;;;;5051401;28;20095;-43
2022/08/05 06:56:58;;;;;;;4.80;2.00;;;27.30;54.40;;;;;;5049884;28;20056;-42
2022/08/05 06:59:24;;;;;;;4.47;2.42;;;27.30;54.20;;;;;;5052159;28;20068;-38
2022/08/05 07:01:49;;;;;;;3.15;1.95;;;27.30;54.20;;;;;;5050264;28;20451;-39
2022/08/05 07:04:15;;;;;;;5.28;1.80;;;27.30;54.20;;;;;;5050338;28;20024;-38
2022/08/05 07:06:41;;;;;;;4.43;2.20;;;27.30;54.20;;;;;;5049061;28;20450;-39
2022/08/05 07:09:06;;;;;;;2.75;1.85;;;27.30;54.00;;;;;;5049964;28;20108;-38
2022/08/05 07:11:35;;;;;;;4.18;2.17;;;27.30;54.10;;;;;;5050344;28;20424;-38
2022/08/05 07:16:48;;;;;;;4.95;2.00;;;27.40;54.00;;;;;;5050343;28;20036;-38
2022/08/05 07:19:17;;;;;;;3.78;1.90;;;27.30;54.00;;;;;;5049819;28;20051;-38
2022/08/05 07:21:48;;;;;;;3.33;1.92;;;27.30;53.80;;;;;;5050606;28;20059;-38
2022/08/05 07:24:14;;;;;;;6.53;2.75;;;27.40;53.90;;;;;;5049715;28;20052;-38
2022/08/05 07:26:40;;;;;;;2.35;1.88;;;27.40;53.90;;;;;;5050176;28;20025;-38
2022/08/05 07:29:06;;;;;;;4.95;1.95;;;27.40;53.90;;;;;;5049977;28;20074;-38
2022/08/05 07:31:32;;;;;;;5.07;1.73;;;27.40;53.80;;;;;;5049956;28;20037;-38
2022/08/05 07:33:57;;;;;;;4.90;1.92;;;27.40;53.70;;;;;;5050141;28;20036;-45
2022/08/05 07:36:23;;;;;;;3.30;1.85;;;27.40;53.60;;;;;;5049770;28;20021;-39
2022/08/05 07:38:49;;;;;;;4.45;2.30;;;27.40;53.50;;;;;;5050039;28;20032;-39
2022/08/05 07:41:17;;;;;;;4.05;1.95;;;27.40;53.50;;;;;;5049744;28;20382;-38
2022/08/05 07:43:42;;;;;;;4.43;2.17;;;27.40;53.50;;;;;;5050541;28;20512;-38
2022/08/05 07:46:08;;;;;;;3.22;1.88;;;27.40;53.30;;;;;;5050400;28;20060;-38
2022/08/05 07:48:34;;;;;;;3.20;1.70;;;27.40;53.20;;;;;;5050117;28;20114;-38
2022/08/05 07:50:59;;;;;;;3.22;2.20;;;27.40;53.30;;;;;;5048968;28;20041;-44
2022/08/05 07:53:25;;;;;;;2.30;1.83;;;27.40;53.30;;;;;;5049844;28;20081;-38
2022/08/05 07:55:51;;;;;;;4.20;2.10;;;27.40;53.30;;;;;;5050046;28;20029;-38
2022/08/05 07:58:17;;;;;;;3.58;1.90;;;27.40;53.40;;;;;;5049410;28;20025;-38
2022/08/05 08:00:43;;;;;;;2.63;1.80;;;27.40;53.30;;;;;;5050413;28;20051;-38
2022/08/05 08:03:12;;;;;;;3.30;1.77;;;27.40;53.10;;;;;;5049061;28;20037;-38
2022/08/05 08:05:42;;;;;;;2.53;1.95;;;27.40;53.10;;;;;;5052012;28;20452;-38
2022/08/05 08:08:09;;;;;;;2.70;1.63;;;27.40;53.10;;;;;;5052991;28;20021;-38
2022/08/05 08:10:34;;;;;;;3.17;2.28;;;27.40;53.10;;;;;;5053876;28;20060;-42
2022/08/05 08:13:00;;;;;;;2.95;1.52;;;27.50;52.80;;;;;;5053688;28;20425;-45
2022/08/05 08:15:26;;;;;;;4.78;1.45;;;27.40;52.60;;;;;;5055898;28;20025;-38
2022/08/05 08:17:51;;;;;;;4.45;1.60;;;27.50;52.60;;;;;;5055436;28;20040;-38
2022/08/05 08:20:17;;;;;;;1.90;1.70;;;27.50;51.50;;;;;;5047211;28;20134;-38
2022/08/05 08:22:48;;;;;;;2.85;1.48;;;27.50;51.60;;;;;;5053696;28;20033;-39
2022/08/05 08:25:17;;;;;;;2.60;1.67;;;27.50;51.40;;;;;;5033085;28;20040;-41
2022/08/05 08:27:43;;;;;;;3.25;1.50;;;27.50;51.40;;;;;;5053538;28;20090;-38
2022/08/05 08:30:10;;;;;;;2.50;1.85;;;27.50;51.90;;;;;;5053077;28;20033;-38
2022/08/05 08:32:36;;;;;;;2.65;1.63;;;27.50;52.30;;;;;;5053791;28;20044;-38
2022/08/05 08:35:02;;;;;;;5.25;1.60;;;27.50;52.50;;;;;;5053590;28;20082;-42
2022/08/05 08:37:28;;;;;;;4.38;1.77;;;27.50;52.60;;;;;;5054104;28;20124;-38
2022/08/05 08:39:53;;;;;;;2.40;1.60;;;27.60;52.70;;;;;;5054033;28;20159;-38
2022/08/05 08:42:21;;;;;;;3.80;1.77;;;27.60;52.60;;;;;;5052698;28;20780;-39
2022/08/05 08:44:48;;;;;;;3.20;1.80;;;27.60;52.30;;;;;;5053692;28;20489;-38
2022/08/05 08:47:14;;;;;;;2.10;1.73;;;27.60;52.30;;;;;;5054653;28;20029;-38
2022/08/05 08:49:44;;;;;;;4.70;1.50;;;27.60;53.30;;;;;;5053554;28;20029;-38
2022/08/05 08:52:22;;;;;;;3.28;1.60;;;27.60;52.80;;;;;;5035184;28;20488;-38
2022/08/05 08:54:51;;;;;;;4.15;1.50;;;27.60;52.50;;;;;;5053326;28;20021;-38
2022/08/05 08:57:17;;;;;;;1.83;1.50;;;27.60;52.80;;;;;;5052507;28;20060;-38
2022/08/05 08:59:43;;;;;;;2.50;1.70;;;27.60;52.60;;;;;;5054657;28;20025;-38
2022/08/05 09:02:10;;;;;;;2.25;1.50;;;27.60;52.50;;;;;;5052654;28;20045;-39
2022/08/05 09:04:37;;;;;;;4.38;2.00;;;27.70;52.40;;;;;;5052808;28;20037;-38
2022/08/05 09:07:08;;;;;;;2.10;1.55;;;27.60;52.80;;;;;;5052553;28;20033;-39
2022/08/05 09:09:36;;;;;;;3.70;1.77;;;27.60;53.00;;;;;;5053247;28;20041;-38
2022/08/05 09:12:06;;;;;;;2.63;1.60;;;27.70;53.30;;;;;;5052165;28;20466;-44
2022/08/05 09:14:32;;;;;;;1.77;1.33;;;27.60;53.60;;;;;;5052895;28;20040;-38
2022/08/05 09:17:03;;;;;;;4.15;2.30;;;27.60;53.50;;;;;;5051839;28;20029;-44
2022/08/05 09:19:29;;;;;;;2.95;1.70;;;27.60;53.60;;;;;;5052608;28;20402;-38
2022/08/05 09:21:55;;;;;;;3.88;1.48;;;27.70;53.70;;;;;;5053097;28;20029;-38
2022/08/05 09:24:21;;;;;;;2.22;1.65;;;27.70;53.20;;;;;;5051687;28;20025;-38
2022/08/05 09:26:50;;;;;;;3.67;1.77;;;27.70;53.80;;;;;;5052715;28;20028;-38
2022/08/05 09:29:16;;;;;;;2.42;1.50;;;27.70;53.80;;;;;;5051659;28;20064;-38
2022/08/05 09:31:44;;;;;;;3.63;1.55;;;27.70;53.90;;;;;;5052853;28;20060;-38
2022/08/05 09:34:10;;;;;;;2.90;1.80;;;27.70;53.80;;;;;;5051688;28;20037;-38
2022/08/05 09:36:40;;;;;;;3.47;1.40;;;27.70;53.70;;;;;;5052773;28;20037;-39
2022/08/05 09:39:08;;;;;;;2.25;1.40;;;27.70;53.50;;;;;;5044137;28;20025;-38
2022/08/05 09:41:34;;;;;;;4.22;1.67;;;27.70;53.10;;;;;;5052365;28;20061;-38
2022/08/05 09:44:00;;;;;;;3.78;1.40;;;27.70;53.70;;;;;;5056777;28;20077;-44
2022/08/05 09:46:28;;;;;;;1.80;1.40;;;27.70;52.90;;;;;;5057374;28;20423;-38
2022/08/05 09:48:58;;;;;;;2.40;1.60;;;27.70;53.20;;;;;;5051964;28;20052;-40
2022/08/05 09:51:36;;;;;;;2.83;1.65;;;27.70;53.30;;;;;;5052463;28;20020;-38
2022/08/05 09:54:06;;;;;;;3.58;1.63;;;27.70;53.00;;;;;;5050687;28;20486;-39
2022/08/05 09:56:33;;;;;;;2.38;1.42;;;27.70;53.10;;;;;;5050318;28;20412;-38
2022/08/05 09:59:03;;;;;;;3.03;1.88;;;27.70;53.00;;;;;;5053674;28;20394;-42
2022/08/05 10:01:32;;;;;;;3.90;1.70;;;27.70;53.20;;;;;;5050091;28;20032;-38
2022/08/05 10:04:06;;;;;;;3.47;1.65;;;27.70;53.20;;;;;;5050199;28;20074;-43
2022/08/05 10:06:32;;;;;;;2.75;2.00;;;27.70;53.00;;;;;;5051778;28;20090;-38
2022/08/05 10:09:20;;;;;;;4.20;1.70;;;27.70;53.60;;;;;;5051728;28;20510;-42
2022/08/05 10:11:46;;;;;;;2.38;1.50;;;27.70;53.10;;;;;;5049129;28;20094;-38
2022/08/05 10:14:26;;;;;;;6.13;1.52;;;27.70;53.40;;;;;;5048007;28;20037;-38
2022/08/05 10:16:56;;;;;;;3.13;1.50;;;27.70;53.50;;;;;;5049329;28;20017;-38
2022/08/05 10:19:23;;;;;;;2.75;1.17;;;27.70;53.70;;;;;;5049818;28;20360;-38
2022/08/05 10:21:49;;;;;;;4.18;1.67;;;27.70;53.50;;;;;;5051888;28;20086;-38
2022/08/05 10:24:19;;;;;;;2.03;1.30;;;27.70;53.60;;;;;;5050498;28;20075;-39
2022/08/05 10:26:47;;;;;;;2.72;1.48;;;27.70;53.90;;;;;;5051049;28;20036;-38
2022/08/05 10:29:13;;;;;;;2.10;1.33;;;27.70;54.60;;;;;;5050873;28;20021;-38
2022/08/05 10:31:39;;;;;;;3.30;1.52;;;27.70;54.00;;;;;;5051656;28;20150;-38
2022/08/05 10:34:07;;;;;;;4.78;1.67;;;27.70;54.00;;;;;;5050216;28;20119;-39
2022/08/05 10:36:35;;;;;;;2.58;1.55;;;27.70;54.10;;;;;;5051148;28;20470;-38
2022/08/05 10:39:24;;;;;;;2.22;1.45;;;27.80;54.30;;;;;;5050624;28;20079;-42
2022/08/05 10:41:59;;;;;;;1.60;1.30;;;27.80;54.30;;;;;;5051371;28;20420;-38
2022/08/05 10:44:27;;;;;;;2.00;1.35;;;27.80;54.20;;;;;;5050524;28;20032;-38
2022/08/05 10:46:55;;;;;;;2.85;1.30;;;27.80;54.20;;;;;;5051100;28;20025;-38
2022/08/05 10:49:23;;;;;;;2.25;1.83;;;27.80;54.30;;;;;;5047065;28;20025;-38
2022/08/05 10:51:58;;;;;;;1.67;1.30;;;27.80;54.50;;;;;;5050682;28;20068;-39
2022/08/05 10:54:44;;;;;;;2.20;1.52;;;27.80;54.50;;;;;;5050826;28;20123;-38
2022/08/05 10:57:11;;;;;;;1.38;1.25;;;27.80;54.40;;;;;;5048086;28;20167;-38
2022/08/05 10:59:38;;;;;;;1.98;1.30;;;27.80;54.40;;;;;;5051090;28;20025;-38
2022/08/05 11:02:12;;;;;;;2.20;1.27;;;27.80;54.40;;;;;;5049906;28;20102;-39
2022/08/05 11:04:45;;;;;;;1.30;1.20;;;27.80;54.50;;;;;;5050349;28;20056;-38
2022/08/05 11:07:14;;;;;;;3.63;1.60;;;27.90;55.10;;;;;;5046979;28;20029;-38
2022/08/05 11:09:45;;;;;;;1.55;1.30;;;27.80;54.50;;;;;;5050894;28;20029;-38
2022/08/05 11:12:23;;;;;;;3.00;1.33;;;27.90;54.60;;;;;;5049693;28;20127;-38
2022/08/05 11:15:05;;;;;;;2.03;1.20;;;27.90;54.70;;;;;;5049937;28;20033;-39
2022/08/05 11:17:36;;;;;;;1.75;1.30;;;27.90;54.70;;;;;;5050756;28;20025;-38
2022/08/05 11:20:04;;;;;;;1.50;1.20;;;27.90;54.80;;;;;;5050378;28;20423;-40
2022/08/05 11:22:42;;;;;;;2.20;1.30;;;27.90;54.80;;;;;;5050678;28;20029;-38
2022/08/05 11:25:32;;;;;;;2.80;1.58;;;27.90;54.80;;;;;;5046625;28;20051;-38
2022/08/05 11:28:12;;;;;;;2.10;1.48;;;27.90;54.90;;;;;;5048059;28;20070;-40
2022/08/05 11:30:56;;;;;;;2.05;1.35;;;27.90;55.10;;;;;;5049844;28;20040;-38
2022/08/05 11:33:31;;;;;;;3.05;1.30;;;27.90;55.00;;;;;;5049236;28;20032;-38
2022/08/05 11:35:59;;;;;;;1.25;1.15;;;27.90;55.00;;;;;;5050105;28;20100;-38
2022/08/05 11:38:43;;;;;;;2.38;1.30;;;27.90;55.00;;;;;;5049692;28;20056;-38
2022/08/05 11:41:25;;;;;;;1.50;1.20;;;27.90;55.10;;;;;;5049361;28;20044;-38
2022/08/05 11:44:09;;;;;;;2.55;1.58;;;27.90;55.20;;;;;;5050091;28;20108;-38
2022/08/05 11:46:45;;;;;;;1.48;1.23;;;28.00;55.30;;;;;;5050598;28;20528;-38
2022/08/05 11:49:12;;;;;;;1.67;1.35;;;27.90;55.30;;;;;;5048277;28;20029;-38
2022/08/05 11:51:42;;;;;;;2.03;1.30;;;27.90;55.50;;;;;;5050524;28;20509;-38
2022/08/05 11:54:10;;;;;;;3.17;1.33;;;27.90;55.60;;;;;;5049577;28;20043;-38
2022/08/05 11:56:49;;;;;;;1.73;1.27;;;28.00;55.60;;;;;;5050086;28;20108;-39
2022/08/05 11:59:28;;;;;;;1.65;1.00;;;28.00;55.70;;;;;;5046337;28;20021;-38
2022/08/05 12:02:04;;;;;;;1.58;1.05;;;27.90;55.80;;;;;;5047717;28;20484;-38
2022/08/05 12:04:37;;;;;;;1.35;1.23;;;28.00;55.80;;;;;;5050327;28;20040;-39
2022/08/05 12:07:05;;;;;;;1.67;1.30;;;28.00;56.00;;;;;;5048525;28;20024;-42
2022/08/05 12:09:36;;;;;;;1.73;1.30;;;28.00;55.90;;;;;;5051001;28;20046;-38
2022/08/05 12:12:03;;;;;;;1.75;1.10;;;28.00;56.10;;;;;;5049352;28;20444;-45
2022/08/05 12:14:40;;;;;;;1.25;1.02;;;28.00;56.10;;;;;;5043360;28;20488;-38
2022/08/05 12:17:07;;;;;;;1.65;0.98;;;28.00;56.00;;;;;;5048616;28;20025;-38
2022/08/05 12:19:40;;;;;;;1.60;1.30;;;28.00;56.10;;;;;;5049972;28;20029;-38
2022/08/05 12:22:06;;;;;;;1.42;1.20;;;28.00;56.30;;;;;;5049250;28;20529;-38
2022/08/05 12:24:32;;;;;;;2.53;1.02;;;28.00;56.20;;;;;;5049870;28;20029;-38
2022/08/05 12:26:59;;;;;;;1.90;1.27;;;28.00;56.20;;;;;;5032371;28;20301;-38
2022/08/05 12:29:27;;;;;;;2.13;0.98;;;28.00;56.50;;;;;;5049385;28;20093;-38
2022/08/05 12:31:58;;;;;;;2.40;1.00;;;28.00;56.40;;;;;;5050368;28;20082;-38
2022/08/05 12:34:30;;;;;;;3.10;1.00;;;28.00;56.50;;;;;;5049710;28;20060;-38
2022/08/05 12:36:57;;;;;;;;;;;28.00;56.50;;;;;;5050535;28;20029;-38
2022/08/05 12:39:24;;;;;;;1.30;1.10;;;28.00;56.50;;;;;;5050330;28;19909;-38
2022/08/05 12:41:50;;;;;;;2.00;1.08;;;28.00;56.40;;;;;;5050033;28;20036;-39
2022/08/05 12:44:17;;;;;;;2.10;1.30;;;28.00;56.50;;;;;;5052083;28;20119;-38
2022/08/05 12:46:51;;;;;;;3.33;1.30;;;28.00;56.70;;;;;;5046589;28;20021;-39
2022/08/05 12:49:17;;;;;;;1.42;1.33;;;28.00;56.80;;;;;;5049330;28;20064;-38
2022/08/05 12:51:45;;;;;;;1.83;1.20;;;28.00;56.80;;;;;;5051713;28;20060;-38
2022/08/05 12:54:21;;;;;;;1.50;1.17;;;28.00;56.90;;;;;;5052024;28;20378;-38
2022/08/05 12:56:58;;;;;;;1.83;1.00;;;28.00;57.00;;;;;;5054263;28;20033;-38